createdAt,value
2019-03-25T00:01:56.136Z,5.00
2019-03-25T00:04:24.427Z,4.83
2019-03-25T00:06:52.769Z,7.40
2019-03-25T00:09:21.013Z,6.07
2019-03-25T00:11:49.292Z,6.47
2019-03-25T00:14:17.547Z,5.77
2019-03-25T00:16:45.839Z,4.87
2019-03-25T00:19:14.098Z,5.17
2019-03-25T00:21:42.375Z,4.73
2019-03-25T00:24:10.628Z,4.37
2019-03-25T00:26:38.918Z,5.10
2019-03-25T00:29:07.197Z,5.00
2019-03-25T00:31:35.558Z,5.20
2019-03-25T00:34:03.871Z,4.80
2019-03-25T00:36:32.183Z,4.53
2019-03-25T00:39:00.455Z,4.83
2019-03-25T00:41:28.728Z,4.60
2019-03-25T00:43:56.986Z,4.50
2019-03-25T00:46:25.278Z,4.30
2019-03-25T00:48:53.588Z,5.10
2019-03-25T00:51:21.860Z,5.30
2019-03-25T00:53:50.158Z,4.83
2019-03-25T00:56:18.458Z,5.27
2019-03-25T00:58:46.762Z,5.20
2019-03-25T01:01:15.203Z,4.93
2019-03-25T01:03:43.488Z,4.90
2019-03-25T01:06:11.755Z,4.97
2019-03-25T01:08:40.061Z,4.80
2019-03-25T01:11:08.406Z,4.83
2019-03-25T01:13:36.732Z,4.97
2019-03-25T01:16:05.013Z,4.83
2019-03-25T01:18:33.293Z,5.37
2019-03-25T01:21:01.552Z,5.77
2019-03-25T01:23:29.848Z,5.63
2019-03-25T01:25:58.105Z,5.10
2019-03-25T01:28:26.407Z,5.90
2019-03-25T01:30:54.653Z,6.37
2019-03-25T01:33:22.934Z,6.87
2019-03-25T01:35:51.247Z,6.57
2019-03-25T01:38:19.553Z,6.93
2019-03-25T01:40:47.803Z,6.83
2019-03-25T01:43:16.108Z,6.47
2019-03-25T01:45:44.409Z,7.07
2019-03-25T01:48:12.677Z,6.70
2019-03-25T01:50:40.941Z,7.27
2019-03-25T01:53:09.223Z,7.03
2019-03-25T01:55:37.497Z,7.33
2019-03-25T01:58:05.763Z,7.00
2019-03-25T02:00:34.041Z,7.70
2019-03-25T02:03:02.329Z,7.10
2019-03-25T02:05:30.618Z,7.97
2019-03-25T02:07:58.910Z,7.60
2019-03-25T02:10:27.256Z,7.43
2019-03-25T02:12:55.514Z,6.83
2019-03-25T02:15:23.800Z,6.60
2019-03-25T02:17:52.051Z,8.37
2019-03-25T02:20:26.417Z,7.93
2019-03-25T02:22:50.435Z,7.53
2019-03-25T02:25:25.394Z,7.43
2019-03-25T02:27:48.857Z,7.97
2019-03-25T02:30:17.135Z,7.47
2019-03-25T02:32:45.484Z,6.90
2019-03-25T02:35:13.871Z,7.37
2019-03-25T02:37:42.172Z,7.80
2019-03-25T02:40:10.457Z,7.20
2019-03-25T02:42:38.700Z,8.13
2019-03-25T02:45:07.475Z,7.73
2019-03-25T02:47:35.743Z,8.70
2019-03-25T02:50:04.999Z,6.57
2019-03-25T02:52:33.376Z,6.80
2019-03-25T02:55:01.732Z,6.70
2019-03-25T02:57:30.028Z,7.60
2019-03-25T02:59:58.386Z,7.47
2019-03-25T03:02:26.683Z,7.60
2019-03-25T03:04:54.937Z,7.47
2019-03-25T03:07:23.243Z,7.67
2019-03-25T03:09:51.579Z,8.00
2019-03-25T03:12:19.844Z,7.43
2019-03-25T03:14:48.098Z,7.83
2019-03-25T03:17:16.411Z,8.47
2019-03-25T03:19:44.727Z,8.47
2019-03-25T03:22:13.007Z,8.70
2019-03-25T03:24:41.346Z,7.93
2019-03-25T03:27:09.623Z,6.80
2019-03-25T03:29:37.878Z,7.17
2019-03-25T03:32:06.327Z,7.27
2019-03-25T03:34:34.639Z,7.80
2019-03-25T03:37:03.001Z,7.33
2019-03-25T03:39:31.276Z,7.60
2019-03-25T03:41:59.570Z,8.00
2019-03-25T03:44:27.863Z,8.47
2019-03-25T03:46:56.263Z,8.10
2019-03-25T03:49:24.590Z,8.77
2019-03-25T03:51:53.459Z,8.20
2019-03-25T03:54:21.777Z,9.00
2019-03-25T03:56:50.163Z,7.60
2019-03-25T03:59:18.445Z,8.73
2019-03-25T04:01:46.728Z,7.97
2019-03-25T04:04:15.008Z,8.87
2019-03-25T04:06:43.268Z,9.63
2019-03-25T04:09:11.562Z,8.20
2019-03-25T04:11:39.817Z,8.63
2019-03-25T04:14:08.108Z,9.47
2019-03-25T04:16:36.377Z,10.23
2019-03-25T04:19:04.651Z,10.23
2019-03-25T04:21:32.983Z,10.83
2019-03-25T04:24:01.328Z,10.50
2019-03-25T04:26:29.779Z,10.07
2019-03-25T04:28:58.045Z,10.73
2019-03-25T04:31:26.327Z,10.03
2019-03-25T04:33:54.596Z,11.50
2019-03-25T04:36:22.892Z,10.87
2019-03-25T04:38:51.199Z,10.23
2019-03-25T04:41:19.492Z,11.73
2019-03-25T04:43:47.766Z,12.40
2019-03-25T04:46:16.027Z,12.67
2019-03-25T04:48:44.288Z,13.53
2019-03-25T04:51:12.648Z,13.33
2019-03-25T04:53:40.906Z,13.90
2019-03-25T04:56:09.191Z,15.73
2019-03-25T04:58:37.457Z,14.73
2019-03-25T05:01:05.750Z,13.23
2019-03-25T05:03:34.015Z,12.70
2019-03-25T05:06:02.323Z,10.13
2019-03-25T05:08:30.646Z,10.03
2019-03-25T05:10:58.926Z,6.53
2019-03-25T05:13:27.176Z,6.43
2019-03-25T05:15:55.456Z,4.60
2019-03-25T05:18:23.730Z,4.90
2019-03-25T05:20:52.075Z,4.43
2019-03-25T05:23:20.322Z,3.63
2019-03-25T05:25:48.582Z,3.53
2019-03-25T05:28:16.931Z,5.37
2019-03-25T05:30:45.222Z,4.83
2019-03-25T05:33:13.506Z,4.53
2019-03-25T05:35:41.933Z,3.57
2019-03-25T05:38:10.220Z,3.10
2019-03-25T05:40:38.465Z,3.30
2019-03-25T05:43:06.778Z,2.83
2019-03-25T05:45:35.025Z,3.00
2019-03-25T05:48:03.310Z,4.00
2019-03-25T05:50:31.638Z,4.30
2019-03-25T05:52:59.916Z,4.27
2019-03-25T05:55:28.175Z,5.27
2019-03-25T05:57:56.553Z,2.63
2019-03-25T06:00:26.517Z,3.10
2019-03-25T06:02:54.785Z,3.83
2019-03-25T06:05:23.046Z,4.80
2019-03-25T06:07:51.316Z,2.83
2019-03-25T06:10:19.632Z,3.07
2019-03-25T06:12:47.912Z,3.53
2019-03-25T06:15:16.331Z,3.57
2019-03-25T06:17:44.617Z,3.10
2019-03-25T06:20:12.890Z,2.97
2019-03-25T06:22:41.182Z,3.07
2019-03-25T06:25:09.430Z,3.53
2019-03-25T06:27:37.755Z,3.83
2019-03-25T06:30:10.292Z,3.07
2019-03-25T06:32:38.565Z,3.27
2019-03-25T06:35:08.965Z,2.57
2019-03-25T06:37:36.945Z,2.33
2019-03-25T06:40:06.923Z,2.30
2019-03-25T06:42:35.170Z,2.30
2019-03-25T06:45:04.128Z,2.00
2019-03-25T06:47:32.399Z,2.20
2019-03-25T06:50:00.705Z,2.70
2019-03-25T06:52:29.021Z,2.13
2019-03-25T06:54:57.304Z,2.07
2019-03-25T06:57:26.093Z,2.97
2019-03-25T06:59:54.418Z,2.20
2019-03-25T07:02:22.671Z,2.60
2019-03-25T07:04:51.089Z,2.40
2019-03-25T07:07:19.390Z,2.73
2019-03-25T07:09:47.685Z,3.13
2019-03-25T07:12:15.937Z,2.50
2019-03-25T07:14:44.221Z,2.43
2019-03-25T07:17:12.501Z,2.57
2019-03-25T07:19:40.792Z,2.97
2019-03-25T07:22:09.048Z,2.43
2019-03-25T07:24:37.305Z,3.53
2019-03-25T07:27:05.585Z,2.67
2019-03-25T07:29:33.842Z,2.90
2019-03-25T07:32:02.153Z,2.60
2019-03-25T07:34:30.411Z,2.83
2019-03-25T07:36:58.713Z,2.63
2019-03-25T07:39:26.963Z,2.47
2019-03-25T07:41:55.261Z,3.07
2019-03-25T07:44:23.527Z,2.93
2019-03-25T07:46:51.816Z,3.07
2019-03-25T07:49:20.085Z,3.20
2019-03-25T07:51:48.387Z,3.43
2019-03-25T07:54:16.720Z,2.63
2019-03-25T07:56:45.137Z,2.93
2019-03-25T07:59:13.385Z,2.83
2019-03-25T08:01:41.689Z,2.70
2019-03-25T08:04:10.052Z,2.73
2019-03-25T08:06:38.405Z,3.80
2019-03-25T08:09:07.210Z,2.33
2019-03-25T08:11:35.530Z,2.97
2019-03-25T08:14:03.842Z,3.33
2019-03-25T08:16:32.151Z,3.03
2019-03-25T08:19:00.460Z,2.70
2019-03-25T08:21:28.902Z,4.17
2019-03-25T08:23:57.182Z,3.13
2019-03-25T08:26:25.445Z,3.07
2019-03-25T08:28:53.740Z,3.30
2019-03-25T08:31:22.031Z,2.87
2019-03-25T08:33:50.410Z,3.60
2019-03-25T08:36:18.697Z,3.33
2019-03-25T08:38:46.962Z,3.10
2019-03-25T08:41:15.212Z,3.80
2019-03-25T08:43:43.544Z,3.40
2019-03-25T08:46:11.852Z,3.60
2019-03-25T08:48:40.130Z,3.83
2019-03-25T08:51:08.415Z,3.47
2019-03-25T08:53:36.773Z,4.00
2019-03-25T08:56:05.101Z,5.00
2019-03-25T08:58:33.356Z,4.33
2019-03-25T09:01:01.633Z,4.60
2019-03-25T09:03:29.890Z,4.90
2019-03-25T09:05:59.537Z,4.07
2019-03-25T09:08:27.886Z,5.50
2019-03-25T09:10:56.202Z,5.33
2019-03-25T09:13:24.538Z,4.77
2019-03-25T09:15:52.925Z,4.37
2019-03-25T09:18:21.169Z,1.40
2019-03-25T09:20:49.464Z,0.80
2019-03-25T09:23:17.760Z,0.67
2019-03-25T09:25:46.097Z,0.50
2019-03-25T09:28:23.631Z,0.70
2019-03-25T09:30:53.667Z,1.10
2019-03-25T09:33:21.996Z,0.97
2019-03-25T09:35:50.317Z,0.83
2019-03-25T09:38:18.614Z,0.50
2019-03-25T09:40:46.906Z,0.50
2019-03-25T09:43:15.166Z,0.43
2019-03-25T09:45:43.485Z,0.60
2019-03-25T09:48:11.800Z,0.60
2019-03-25T09:50:40.170Z,0.90
2019-03-25T09:53:08.446Z,0.80
2019-03-25T09:55:36.736Z,0.80
2019-03-25T09:58:05.073Z,0.80
2019-03-25T10:00:33.411Z,1.10
2019-03-25T10:03:01.719Z,0.83
2019-03-25T10:05:30.042Z,0.90
2019-03-25T10:07:58.311Z,0.87
2019-03-25T10:10:26.579Z,1.20
2019-03-25T10:12:56.844Z,1.83
2019-03-25T10:15:24.906Z,1.33
2019-03-25T10:17:53.268Z,1.17
2019-03-25T10:20:21.531Z,1.33
2019-03-25T10:22:49.818Z,1.33
2019-03-25T10:25:18.098Z,1.40
2019-03-25T10:27:46.462Z,1.20
2019-03-25T10:30:15.456Z,1.90
2019-03-25T10:32:43.749Z,1.00
2019-03-25T10:35:12.000Z,1.27
2019-03-25T10:37:40.368Z,1.57
2019-03-25T10:40:08.702Z,1.30
2019-03-25T10:42:37.056Z,1.20
2019-03-25T10:45:08.513Z,1.53
2019-03-25T10:47:36.815Z,0.97
2019-03-25T10:50:07.081Z,1.10
2019-03-25T10:52:35.351Z,1.30
2019-03-25T10:55:04.903Z,1.20
2019-03-25T10:57:33.187Z,1.30
2019-03-25T11:00:01.468Z,1.00
2019-03-25T11:02:29.790Z,0.70
2019-03-25T11:04:58.090Z,0.80
2019-03-25T11:07:28.265Z,0.57
2019-03-25T11:09:56.361Z,0.63
2019-03-25T11:12:24.684Z,0.90
2019-03-25T11:14:52.971Z,0.50
2019-03-25T11:17:21.254Z,0.67
2019-03-25T11:19:49.552Z,0.60
2019-03-25T11:22:17.876Z,0.70
2019-03-25T11:24:46.165Z,0.70
2019-03-25T11:27:14.420Z,0.80
2019-03-25T11:29:42.758Z,1.10
2019-03-25T11:32:11.030Z,1.10
2019-03-25T11:34:39.314Z,0.80
2019-03-25T11:37:07.644Z,0.83
2019-03-25T11:39:35.942Z,1.00
2019-03-25T11:42:04.244Z,0.97
2019-03-25T11:44:32.731Z,1.10
2019-03-25T11:47:01.005Z,1.10
2019-03-25T11:49:29.271Z,1.10
2019-03-25T11:51:57.609Z,1.00
2019-03-25T11:54:25.872Z,1.23
2019-03-25T11:56:54.160Z,1.27
2019-03-25T11:59:22.418Z,1.00
2019-03-25T12:01:50.690Z,1.07
2019-03-25T12:04:18.950Z,1.27
2019-03-25T12:06:47.309Z,1.70
2019-03-25T12:09:15.564Z,1.23
2019-03-25T12:11:43.854Z,1.07
2019-03-25T12:14:12.101Z,1.37
2019-03-25T12:16:40.392Z,1.00
2019-03-25T12:19:08.659Z,1.00
2019-03-25T12:21:36.939Z,1.00
2019-03-25T12:24:05.217Z,1.00
2019-03-25T12:26:33.504Z,1.00
2019-03-25T12:29:01.776Z,1.13
2019-03-25T12:31:30.070Z,0.97
2019-03-25T12:33:58.330Z,1.30
2019-03-25T12:36:26.591Z,1.50
2019-03-25T12:38:54.858Z,1.20
2019-03-25T12:41:23.143Z,1.07
2019-03-25T12:43:51.486Z,1.70
2019-03-25T12:46:19.820Z,1.20
2019-03-25T12:48:48.133Z,1.37
2019-03-25T12:51:16.453Z,1.33
2019-03-25T12:53:44.801Z,0.97
2019-03-25T12:56:13.091Z,0.90
2019-03-25T12:58:41.386Z,0.60
2019-03-25T13:01:09.644Z,0.70
2019-03-25T13:03:40.500Z,0.70
2019-03-25T13:06:07.939Z,0.50
2019-03-25T13:08:36.219Z,1.10
2019-03-25T13:11:04.714Z,1.33
2019-03-25T13:13:33.036Z,1.33
2019-03-25T13:16:01.380Z,3.07
2019-03-25T13:18:29.806Z,1.00
2019-03-25T13:20:58.049Z,0.73
2019-03-25T13:23:26.361Z,0.80
2019-03-25T13:25:54.626Z,0.80
2019-03-25T13:28:22.894Z,0.80
2019-03-25T13:30:51.260Z,1.10
2019-03-25T13:33:19.612Z,0.97
2019-03-25T13:35:47.906Z,0.70
2019-03-25T13:38:16.170Z,1.10
2019-03-25T13:40:44.489Z,0.80
2019-03-25T13:43:12.879Z,0.70
2019-03-25T13:45:41.190Z,0.80
2019-03-25T13:48:09.457Z,1.30
2019-03-25T13:50:37.743Z,1.17
2019-03-25T13:53:06.036Z,1.73
2019-03-25T13:55:34.334Z,1.50
2019-03-25T13:58:02.606Z,1.20
2019-03-25T14:00:40.036Z,1.23
2019-03-25T14:03:08.316Z,1.27
2019-03-25T14:05:36.640Z,1.47
2019-03-25T14:08:04.919Z,1.40
2019-03-25T14:10:33.216Z,1.63
2019-03-25T14:13:01.497Z,1.53
2019-03-25T14:15:29.811Z,1.33
2019-03-25T14:17:58.145Z,1.40
2019-03-25T14:20:26.491Z,1.13
2019-03-25T14:22:54.765Z,1.87
2019-03-25T14:25:23.034Z,1.37
2019-03-25T14:27:51.286Z,0.80
2019-03-25T14:30:19.570Z,0.77
2019-03-25T14:32:47.851Z,1.00
2019-03-25T14:35:16.137Z,0.50
2019-03-25T14:37:44.416Z,1.00
2019-03-25T14:40:12.706Z,0.60
2019-03-25T14:42:40.980Z,0.97
2019-03-25T14:45:09.249Z,0.97
2019-03-25T14:47:37.556Z,0.87
2019-03-25T14:50:06.664Z,0.73
2019-03-25T14:52:35.116Z,0.60
2019-03-25T14:55:03.594Z,0.57
2019-03-25T14:57:31.886Z,1.00
2019-03-25T15:00:00.333Z,0.80
2019-03-25T15:02:28.675Z,6.10
2019-03-25T15:04:56.983Z,0.60
2019-03-25T15:07:25.349Z,0.40
2019-03-25T15:09:53.630Z,0.70
2019-03-25T15:12:21.885Z,0.60
2019-03-25T15:14:50.199Z,0.47
2019-03-25T15:17:18.495Z,0.30
2019-03-25T15:19:46.827Z,0.30
2019-03-25T15:22:15.146Z,0.33
2019-03-25T15:24:43.481Z,0.50
2019-03-25T15:27:11.798Z,0.70
2019-03-25T15:29:40.172Z,0.63
2019-03-25T15:32:08.466Z,0.40
2019-03-25T15:34:36.764Z,0.73
2019-03-25T15:37:05.105Z,0.57
2019-03-25T15:39:33.440Z,0.90
2019-03-25T15:42:01.700Z,0.90
2019-03-25T15:44:33.176Z,0.83
2019-03-25T15:47:01.496Z,1.10
2019-03-25T15:49:29.844Z,1.20
2019-03-25T15:51:58.118Z,0.80
2019-03-25T15:54:26.485Z,1.00
2019-03-25T15:56:54.775Z,1.00
2019-03-25T15:59:23.091Z,1.13
2019-03-25T16:01:51.376Z,1.43
2019-03-25T16:04:19.741Z,1.10
2019-03-25T16:06:48.011Z,1.00
2019-03-25T16:09:16.256Z,1.00
2019-03-25T16:11:44.574Z,1.10
2019-03-25T16:14:12.950Z,1.07
2019-03-25T16:16:41.272Z,0.60
2019-03-25T16:19:09.569Z,1.00
2019-03-25T16:21:37.856Z,0.70
2019-03-25T16:24:06.195Z,0.67
2019-03-25T16:26:34.549Z,1.27
2019-03-25T16:29:02.807Z,0.73
2019-03-25T16:31:31.095Z,0.80
2019-03-25T16:33:59.434Z,0.80
2019-03-25T16:36:27.719Z,1.00
2019-03-25T16:38:55.986Z,0.77
2019-03-25T16:41:24.250Z,0.70
2019-03-25T16:43:52.606Z,0.80
2019-03-25T16:46:20.889Z,0.97
2019-03-25T16:48:49.162Z,0.70
2019-03-25T16:51:17.454Z,0.90
2019-03-25T16:53:45.736Z,1.00
2019-03-25T16:56:14.034Z,1.00
2019-03-25T16:58:42.310Z,1.10
2019-03-25T17:01:10.679Z,1.23
2019-03-25T17:03:39.084Z,1.03
2019-03-25T17:06:07.435Z,1.13
2019-03-25T17:08:35.682Z,1.10
2019-03-25T17:11:04.009Z,1.50
2019-03-25T17:13:32.342Z,1.30
2019-03-25T17:16:00.676Z,1.33
2019-03-25T17:18:28.927Z,1.53
2019-03-25T17:20:57.215Z,1.50
2019-03-25T17:23:25.481Z,1.63
2019-03-25T17:25:53.790Z,1.50
2019-03-25T17:28:22.090Z,2.00
2019-03-25T17:30:50.458Z,1.93
2019-03-25T17:33:18.881Z,1.67
2019-03-25T17:35:47.311Z,2.00
2019-03-25T17:38:15.732Z,1.70
2019-03-25T17:40:44.058Z,1.70
2019-03-25T17:43:12.395Z,1.93
2019-03-25T17:45:40.718Z,2.10
2019-03-25T17:48:09.079Z,2.63
2019-03-25T17:50:37.403Z,1.40
2019-03-25T17:53:05.691Z,2.00
2019-03-25T17:55:34.200Z,1.80
2019-03-25T17:58:02.512Z,2.10
2019-03-25T18:00:36.881Z,2.07
2019-03-25T18:03:10.947Z,2.00
2019-03-25T18:05:35.180Z,2.43
2019-03-25T18:08:03.484Z,2.07
2019-03-25T18:10:31.775Z,1.90
2019-03-25T18:13:00.050Z,2.60
2019-03-25T18:15:28.348Z,2.97
2019-03-25T18:17:56.655Z,3.07
2019-03-25T18:20:24.919Z,2.97
2019-03-25T18:22:53.205Z,2.60
2019-03-25T18:25:21.517Z,2.80
2019-03-25T18:27:49.856Z,2.63
2019-03-25T18:30:21.400Z,2.83
2019-03-25T18:32:49.749Z,2.90
2019-03-25T18:35:22.815Z,3.40
2019-03-25T18:37:51.112Z,2.83
2019-03-25T18:40:19.401Z,3.10
2019-03-25T18:42:47.822Z,3.00
2019-03-25T18:45:16.241Z,2.93
2019-03-25T18:47:44.542Z,3.37
2019-03-25T18:50:12.812Z,3.20
2019-03-25T18:52:41.098Z,3.43
2019-03-25T18:55:09.408Z,3.20
2019-03-25T18:57:37.739Z,3.43
2019-03-25T19:00:07.561Z,3.17
2019-03-25T19:02:35.923Z,3.00
2019-03-25T19:05:05.651Z,3.60
2019-03-25T19:07:36.625Z,2.77
2019-03-25T19:10:07.895Z,3.83
2019-03-25T19:12:36.300Z,2.90
2019-03-25T19:15:06.459Z,3.10
2019-03-25T19:17:34.824Z,2.87
2019-03-25T19:20:03.992Z,3.30
2019-03-25T19:22:32.306Z,4.13
2019-03-25T19:25:00.612Z,2.90
2019-03-25T19:27:28.966Z,3.43
2019-03-25T19:29:57.316Z,3.13
2019-03-25T19:32:25.647Z,2.87
2019-03-25T19:34:54.028Z,3.73
2019-03-25T19:37:22.356Z,2.53
2019-03-25T19:39:50.686Z,3.23
2019-03-25T19:42:19.015Z,3.00
2019-03-25T19:44:47.370Z,2.70
2019-03-25T19:47:15.618Z,2.30
2019-03-25T19:49:44.131Z,2.53
2019-03-25T19:52:12.615Z,2.50
2019-03-25T19:54:41.032Z,2.17
2019-03-25T19:57:09.370Z,2.27
2019-03-25T19:59:37.755Z,1.87
2019-03-25T20:02:18.125Z,2.33
2019-03-25T20:04:36.163Z,1.93
2019-03-25T20:07:05.474Z,2.30
2019-03-25T20:09:33.793Z,2.40
2019-03-25T20:12:02.181Z,2.60
2019-03-25T20:14:30.476Z,2.77
2019-03-25T20:16:58.940Z,2.30
2019-03-25T20:19:27.298Z,2.60
2019-03-25T20:21:55.620Z,2.60
2019-03-25T20:24:24.174Z,2.53
2019-03-25T20:26:52.563Z,2.83
2019-03-25T20:29:20.861Z,2.67
2019-03-25T20:31:49.222Z,2.37
2019-03-25T20:34:17.606Z,2.87
2019-03-25T20:36:46.013Z,2.43
2019-03-25T20:39:14.341Z,2.63
2019-03-25T20:41:42.721Z,2.63
2019-03-25T20:44:11.023Z,3.20
2019-03-25T20:46:39.341Z,3.10
2019-03-25T20:49:07.714Z,3.07
2019-03-25T20:51:36.061Z,3.30
2019-03-25T20:54:04.434Z,3.00
2019-03-25T20:56:32.940Z,3.17
2019-03-25T20:59:01.347Z,3.43
2019-03-25T21:01:29.651Z,4.10
2019-03-25T21:03:57.984Z,3.93
2019-03-25T21:06:26.378Z,4.77
2019-03-25T21:08:54.825Z,4.17
2019-03-25T21:11:23.139Z,4.30
2019-03-25T21:13:51.449Z,4.30
2019-03-25T21:16:19.791Z,3.63
2019-03-25T21:18:48.256Z,3.83
2019-03-25T21:21:16.738Z,3.83
2019-03-25T21:23:45.038Z,3.97
2019-03-25T21:26:13.413Z,4.40
2019-03-25T21:28:41.831Z,3.53
2019-03-25T21:31:10.219Z,3.03
2019-03-25T21:33:38.621Z,3.43
2019-03-25T21:36:06.986Z,3.43
2019-03-25T21:38:35.275Z,4.33
2019-03-25T21:41:03.599Z,3.57
2019-03-25T21:43:31.928Z,4.13
2019-03-25T21:46:00.229Z,4.20
2019-03-25T21:48:28.551Z,4.10
2019-03-25T21:50:56.906Z,4.13
2019-03-25T21:53:25.182Z,5.07
2019-03-25T21:55:53.599Z,4.90
2019-03-25T21:58:21.951Z,4.70
2019-03-25T22:00:50.387Z,4.47
2019-03-25T22:03:18.721Z,4.43
2019-03-25T22:05:47.099Z,4.60
2019-03-25T22:08:15.370Z,4.47
2019-03-25T22:10:43.700Z,3.90
2019-03-25T22:13:11.975Z,4.10
2019-03-25T22:15:40.322Z,3.57
2019-03-25T22:18:08.579Z,3.57
2019-03-25T22:20:36.874Z,3.60
2019-03-25T22:23:05.191Z,3.70
2019-03-25T22:25:33.536Z,4.30
2019-03-25T22:28:01.824Z,4.30
2019-03-25T22:30:30.160Z,4.20
2019-03-25T22:32:58.466Z,3.80
2019-03-25T22:35:26.795Z,3.47
2019-03-25T22:37:55.218Z,3.50
2019-03-25T22:40:23.645Z,4.93
2019-03-25T22:42:51.934Z,3.80
2019-03-25T22:45:28.080Z,4.50
2019-03-25T22:47:56.369Z,3.73
2019-03-25T22:50:29.093Z,3.47
2019-03-25T22:52:57.863Z,3.50
2019-03-25T22:55:26.519Z,4.43
2019-03-25T22:57:54.802Z,4.07
2019-03-25T23:00:25.079Z,3.83
2019-03-25T23:02:53.585Z,4.07
2019-03-25T23:05:21.843Z,4.10
2019-03-25T23:07:50.123Z,4.50
2019-03-25T23:10:18.541Z,4.63
2019-03-25T23:12:46.865Z,3.60
2019-03-25T23:15:15.149Z,3.80
2019-03-25T23:17:43.512Z,4.90
2019-03-25T23:20:11.847Z,4.97
2019-03-25T23:22:40.125Z,4.10
2019-03-25T23:25:08.409Z,4.33
2019-03-25T23:27:36.805Z,5.37
2019-03-25T23:30:05.711Z,4.87
2019-03-25T23:32:33.998Z,5.10
2019-03-25T23:35:02.354Z,4.70
2019-03-25T23:37:30.620Z,5.40
2019-03-25T23:39:58.990Z,4.90
2019-03-25T23:42:27.270Z,4.50
2019-03-25T23:44:55.709Z,5.03
2019-03-25T23:47:23.968Z,4.83
2019-03-25T23:49:52.270Z,5.80
2019-03-25T23:52:20.545Z,5.70
2019-03-25T23:54:48.906Z,5.20
2019-03-25T23:57:17.164Z,5.27
2019-03-25T23:59:45.460Z,4.63
